San Austin — WDE5041 — position and weather

sailwx.info

Track history (hours):
 
Tides and Currents Weather Stations Pressure Air Temp Water Temp Dewpoint Dewpoint Depression Visibility Wind Speed Wind Dir Waves Ship Positions

San Austin

Owner: Buffalo Mariner Service, Inc., Houston, TX. More information available from US FCC via Universal Licensing System and Coast Guard Vessel Documentation Center.

Last reported at 2018-Feb-21 19:00 UTC. Time now 2018-Feb-21 19:21 UTC.
Position N 29°50' W 093°57'.

Length 20 m.

Type: Tug. MMSI: 367361210.

Date/timePositionNaut miles runAvg speedWind from/ knotsBaromVisibWave heightAir tempDewpointWater temp
2018-Feb-21 19:00N 29°50' W 093°57'3 6.8
2018-Feb-21 18:31N 29°53' W 093°55'4 7.7
2018-Feb-21 18:01N 29°56' W 093°52'3 6.6
2018-Feb-21 17:31N 29°59' W 093°50'3 5.3
2018-Feb-21 17:01N 29°59' W 093°47'2 4.5
2018-Feb-21 16:31N 30°01' W 093°45'3 6.5
2018-Feb-21 16:00N 30°03' W 093°43'3 5.4
2018-Feb-21 15:30N 30°04' W 093°39'3 6.9
2018-Feb-21 15:01N 30°04' W 093°36'3 6.7
2018-Feb-21 14:31N 30°04' W 093°32'3 6.7
2018-Feb-21 14:01N 30°04' W 093°28'3 6.5
2018-Feb-21 13:31N 30°04' W 093°24'3 5.7
2018-Feb-21 13:01N 30°04' W 093°21'3 5.1
2018-Feb-21 12:30N 30°06' W 093°20'3 6.1
2018-Feb-21 12:01N 30°09' W 093°20'4 7.3
2018-Feb-21 11:31N 30°12' W 093°17'1 2.9
2018-Feb-21 11:01N 30°13' W 093°15'0 0.0
2018-Feb-21 10:31N 30°13' W 093°15'0 0.0
2018-Feb-21 10:01N 30°13' W 093°15'0 0.0
2018-Feb-21 09:31N 30°13' W 093°15'0 0.0
2018-Feb-21 09:01N 30°13' W 093°15'0 0.0
2018-Feb-21 08:31N 30°13' W 093°15'0 0.0
2018-Feb-21 08:01N 30°13' W 093°15'0 0.0
2018-Feb-21 07:31N 30°13' W 093°15'0 0.0
2018-Feb-21 07:01N 30°13' W 093°15'0 0.0
2018-Feb-21 06:31N 30°13' W 093°15'0 0.0
2018-Feb-21 06:00N 30°13' W 093°15'0 0.0
2018-Feb-21 05:31N 30°13' W 093°15'0 0.0
2018-Feb-21 05:00N 30°13' W 093°15'0 0.0
2018-Feb-21 04:30N 30°13' W 093°15'0 0.0
2018-Feb-21 04:01N 30°13' W 093°15'0 0.0
2018-Feb-21 03:31N 30°13' W 093°15'0 0.0
2018-Feb-21 03:01N 30°13' W 093°15'0 0.0
2018-Feb-21 02:30N 30°13' W 093°15'0 0.0
2018-Feb-21 02:01N 30°13' W 093°15'0 0.0
2018-Feb-21 01:31N 30°13' W 093°15'0 0.0
2018-Feb-21 01:01N 30°13' W 093°15'0 0.0
2018-Feb-21 00:31N 30°13' W 093°15'0 0.0
2018-Feb-21 00:01N 30°13' W 093°15'0 0.0
2018-Feb-20 23:30N 30°13' W 093°15'0 0.0
2018-Feb-20 23:01N 30°13' W 093°15'0 0.0
2018-Feb-20 22:31N 30°13' W 093°15'0 0.0
2018-Feb-20 22:01N 30°13' W 093°15'0 0.0
2018-Feb-20 21:30N 30°13' W 093°15'0 0.0
2018-Feb-20 21:00N 30°13' W 093°15'0 0.0
2018-Feb-20 20:31N 30°13' W 093°15'0 0.0
2018-Feb-20 20:01N 30°13' W 093°15'0 0.0
2018-Feb-20 19:30N 30°13' W 093°15'0 0.0
2018-Feb-20 19:01N 30°13' W 093°15'0 0.0
2018-Feb-20 18:31N 30°13' W 093°15'0 0.0
2018-Feb-20 18:01N 30°13' W 093°15'0 0.0
2018-Feb-20 17:31N 30°13' W 093°15'0 0.0
2018-Feb-20 17:01N 30°13' W 093°15'0 0.0
2018-Feb-20 16:31N 30°13' W 093°15'0 0.0
2018-Feb-20 16:01N 30°13' W 093°15'0 0.0
2018-Feb-20 15:31N 30°13' W 093°15'0 0.0
2018-Feb-20 15:00N 30°13' W 093°15'0 0.0
2018-Feb-20 14:31N 30°13' W 093°15'0 0.0
2018-Feb-20 14:01N 30°13' W 093°15'0 0.0
2018-Feb-20 13:31N 30°13' W 093°15'0 0.0
2018-Feb-20 13:01N 30°13' W 093°15'0 0.0
2018-Feb-20 12:30N 30°13' W 093°15'0 0.0
2018-Feb-20 12:00N 30°13' W 093°15'0 0.6
2018-Feb-20 11:30N 30°13' W 093°15'3 6.2
2018-Feb-20 11:00N 30°11' W 093°19'0 0.3
2018-Feb-20 10:30N 30°11' W 093°19'0 0.0
2018-Feb-20 10:00N 30°11' W 093°19'0 0.0
2018-Feb-20 09:30N 30°11' W 093°19'0 0.0
2018-Feb-20 09:00N 30°11' W 093°19'0 0.0
2018-Feb-20 08:31N 30°11' W 093°19'0 0.0
2018-Feb-20 07:45N 30°11' W 093°19'0 0.0
2018-Feb-20 07:30N 30°11' W 093°19'0 0.0
2018-Feb-20 07:00N 30°11' W 093°19'0 0.0
2018-Feb-20 06:30N 30°11' W 093°19'0 0.0
2018-Feb-20 06:01N 30°11' W 093°19'0 0.0
2018-Feb-20 05:30N 30°11' W 093°19'0 0.0
2018-Feb-20 05:00N 30°11' W 093°19'0 0.0
2018-Feb-20 04:30N 30°11' W 093°19'0 0.0
2018-Feb-20 04:00N 30°11' W 093°19'0 0.0
2018-Feb-20 03:30N 30°11' W 093°19'0 0.0
2018-Feb-20 03:00N 30°11' W 093°19'1 1.3
2018-Feb-20 02:30N 30°10' W 093°19'4 7.2
2018-Feb-20 02:00N 30°07' W 093°20'3 5.9
2018-Feb-20 01:30N 30°04' W 093°21'2 3.5
2018-Feb-20 01:00N 30°04' W 093°23'3 5.5
2018-Feb-20 00:30N 30°04' W 093°26'3 5.3
2018-Feb-20 00:00N 30°04' W 093°29'3 5.7
2018-Feb-19 23:30N 30°04' W 093°32'3 6.1
2018-Feb-19 23:00N 30°04' W 093°36'3 6.4
2018-Feb-19 22:30N 30°04' W 093°39'3 6.5
2018-Feb-19 22:00N 30°03' W 093°43'3 6.6
2018-Feb-19 21:30N 30°01' W 093°46'3 6.4
2018-Feb-19 21:00N 29°59' W 093°49'2 4.9
2018-Feb-19 20:30N 29°58' W 093°51'3 6.3
2018-Feb-19 20:00N 29°55' W 093°53'3 6.4
2018-Feb-19 19:30N 29°53' W 093°55'3 6.1
2018-Feb-19 19:00N 29°50' W 093°57'2 3.4
2018-Feb-19 18:30N 29°49' W 093°59'2 4.1
2018-Feb-19 18:00N 29°48' W 094°01'3 5.2
2018-Feb-19 17:30N 29°46' W 094°03'3 6.4
2018-Feb-19 17:00N 29°44' W 094°06'3 6.1
2018-Feb-19 16:30N 29°42' W 094°08'3 5.7
2018-Feb-19 16:00N 29°41' W 094°11'3 4.9
2018-Feb-19 15:30N 29°40' W 094°14'3 5.6
2018-Feb-19 15:00N 29°39' W 094°17'3 5.6
2018-Feb-19 14:30N 29°37' W 094°20'3 5.6
2018-Feb-19 14:00N 29°36' W 094°23'2 4.6
2018-Feb-19 13:30N 29°35' W 094°25'3 4.3
2018-Feb-19 12:49N 29°33' W 094°28'2 4.9
2018-Feb-19 12:30N 29°32' W 094°29'4 4.4
2018-Feb-19 11:34N 29°30' W 094°33'2 3.5
2018-Feb-19 11:04N 29°29' W 094°35'0 3.1
2018-Feb-19 11:00N 29°29' W 094°35'1 1.1
2018-Feb-19 10:31N 29°29' W 094°36'1 2.4
2018-Feb-19 09:56N 29°29' W 094°37'1 2.9
2018-Feb-19 09:30N 29°28' W 094°38'0 0.2
2018-Feb-19 09:00N 29°28' W 094°38'0 0.0
2018-Feb-19 08:30N 29°28' W 094°38'0 0.0
2018-Feb-19 07:59N 29°28' W 094°38'0 0.0
2018-Feb-19 07:30N 29°28' W 094°38'0 0.0
2018-Feb-19 07:00N 29°28' W 094°38'0 0.0
2018-Feb-19 06:28N 29°28' W 094°38'0 0.0
2018-Feb-19 05:53N 29°28' W 094°38'0 0.0
2018-Feb-19 05:29N 29°28' W 094°38'0 0.0
2018-Feb-19 04:59N 29°28' W 094°38'1 0.1
2018-Feb-18 23:24N 29°28' W 094°39'3 2.8
2018-Feb-18 22:28N 29°27' W 094°42'7 5.0
2018-Feb-18 21:04N 29°21' W 094°47'1 6.9
2018-Feb-18 20:58N 29°21' W 094°47'2 1.9
2018-Feb-18 20:00N 29°19' W 094°47'0 0.2
2018-Feb-18 19:30N 29°19' W 094°47'0 0.1
2018-Feb-18 18:19N 29°19' W 094°47'0 0.0
2018-Feb-18 17:57N 29°19' W 094°47'0 0.0
2018-Feb-18 17:29N 29°19' W 094°47'0 0.0
2018-Feb-18 16:56N 29°19' W 094°47'0 0.0
2018-Feb-17 20:26N 29°19' W 094°47'0 0.0
2018-Feb-17 08:40N 29°19' W 094°47'0 0.0
2018-Feb-17 08:29N 29°19' W 094°47'0 0.0
2018-Feb-17 07:36N 29°19' W 094°47'0 0.0
2018-Feb-17 07:28N 29°19' W 094°47'0 0.0
2018-Feb-17 06:15N 29°19' W 094°47'0 0.0
2018-Feb-17 05:05N 29°19' W 094°47'0 0.0
2018-Feb-17 04:59N 29°19' W 094°47'0 0.0
2018-Feb-17 04:28N 29°19' W 094°47'0 0.0
2018-Feb-17 03:57N 29°19' W 094°47'0 0.0
2018-Feb-17 03:29N 29°19' W 094°47'0 0.0
2018-Feb-17 02:54N 29°19' W 094°47'0 0.0
2018-Feb-17 02:27N 29°19' W 094°47'0 0.0
2018-Feb-17 02:00N 29°19' W 094°47'0 0.1
2018-Feb-17 01:27N 29°19' W 094°47'2 3.9
2018-Feb-17 01:00N 29°21' W 094°47'4 5.6
2018-Feb-17 00:19N 29°24' W 094°49'2 5.6
2018-Feb-17 00:00N 29°26' W 094°50'3 6.5
2018-Feb-16 23:29N 29°29' W 094°52'4 6.9
2018-Feb-16 22:56N 29°32' W 094°54'3 7.2
2018-Feb-16 22:30N 29°35' W 094°56'4 7.0
2018-Feb-16 22:00N 29°38' W 094°58'4 7.7
2018-Feb-16 21:30N 29°41' W 094°59'3 6.4
2018-Feb-16 21:00N 29°44' W 095°02'3 6.3
2018-Feb-16 20:30N 29°46' W 095°05'2 2.5
2018-Feb-16 19:54N 29°47' W 095°06'0 0.1
2018-Feb-16 19:07N 29°46' W 095°06'0 0.0
2018-Feb-16 18:47N 29°47' W 095°06'0 0.0
2018-Feb-16 18:31N 29°47' W 095°06'0 0.0
2018-Feb-16 17:57N 29°47' W 095°06'0 0.0
2018-Feb-16 17:30N 29°47' W 095°06'0 0.1
2018-Feb-16 17:01N 29°47' W 095°06'0 0.1
2018-Feb-16 16:24N 29°46' W 095°06'1 1.6
2018-Feb-16 15:58N 29°46' W 095°06'1 1.5
2018-Feb-16 15:31N 29°45' W 095°06'0 0.1
2018-Feb-16 14:59N 29°45' W 095°06'0 0.0
2018-Feb-16 14:30N 29°45' W 095°06'0 0.0
2018-Feb-16 14:00N 29°45' W 095°06'0 0.0
2018-Feb-16 13:30N 29°45' W 095°06'1 0.5
2018-Feb-16 10:43N 29°46' W 095°06'0 0.0
2018-Feb-16 07:28N 29°46' W 095°06'0 0.0
2018-Feb-16 04:51N 29°46' W 095°06'0 0.0
2018-Feb-16 04:28N 29°46' W 095°06'0 0.0
2018-Feb-16 03:58N 29°46' W 095°06'0 0.0
2018-Feb-16 03:14N 29°46' W 095°06'0 0.0
2018-Feb-16 02:49N 29°46' W 095°06'0 0.0
2018-Feb-16 01:39N 29°46' W 095°06'1 0.2
2018-Feb-15 19:34N 29°46' W 095°05'2 7.2
2018-Feb-15 19:15N 29°44' W 095°03'0 0.0
2018-Feb-15 13:14N 29°44' W 095°03'2 7.5
2018-Feb-15 12:59N 29°45' W 095°04'4 8.6
2018-Feb-15 12:30N 29°44' W 095°09'7 1.7
2018-Feb-15 08:40N 29°43' W 095°16'1 1.5
2018-Feb-15 08:14N 29°44' W 095°17'0 0.0
2018-Feb-15 07:58N 29°44' W 095°17'0 0.0
2018-Feb-15 07:29N 29°44' W 095°17'0 0.0
2018-Feb-15 06:54N 29°44' W 095°17'0 0.0
2018-Feb-15 06:27N 29°44' W 095°17'0 0.0
2018-Feb-15 05:59N 29°44' W 095°17'0 0.0
2018-Feb-15 05:30N 29°44' W 095°17'0 0.0
2018-Feb-15 05:00N 29°44' W 095°17'0 0.0
2018-Feb-15 04:15N 29°44' W 095°17'0 0.0
2018-Feb-15 03:59N 29°44' W 095°17'7 0.9
2018-Feb-14 20:42N 29°44' W 095°09'1 6.1
2018-Feb-14 20:29N 29°44' W 095°07'2 5.0
2018-Feb-14 20:00N 29°46' W 095°06'1 0.6
2018-Feb-14 18:51N 29°46' W 095°06'0 0.1
2018-Feb-14 18:29N 29°46' W 095°06'2 4.1
2018-Feb-14 17:58N 29°45' W 095°04'2 3.4
2018-Feb-14 17:29N 29°44' W 095°03'0 0.0
2018-Feb-14 17:00N 29°44' W 095°03'0 0.0
2018-Feb-14 16:30N 29°44' W 095°03'0 0.0
2018-Feb-14 15:54N 29°44' W 095°03'0 0.0
2018-Feb-14 15:25N 29°44' W 095°03'0 0.0
2018-Feb-14 14:57N 29°44' W 095°03'0 0.0
2018-Feb-14 14:30N 29°44' W 095°03'0 0.0
2018-Feb-14 14:00N 29°44' W 095°03'0 0.0
2018-Feb-14 13:28N 29°44' W 095°03'0 0.0
2018-Feb-14 12:59N 29°44' W 095°03'0 0.0
2018-Feb-14 12:27N 29°44' W 095°03'0 0.0
2018-Feb-14 11:35N 29°44' W 095°03'0 0.0
2018-Feb-14 11:27N 29°44' W 095°03'0 0.0
2018-Feb-14 10:56N 29°44' W 095°03'0 0.0
2018-Feb-14 10:29N 29°44' W 095°03'0 0.0
2018-Feb-14 10:00N 29°44' W 095°03'0 0.0
2018-Feb-14 09:25N 29°44' W 095°03'0 0.0
2018-Feb-14 09:00N 29°44' W 095°03'0 0.0
2018-Feb-14 08:30N 29°44' W 095°03'0 0.0
2018-Feb-14 07:56N 29°44' W 095°03'0 0.0
2018-Feb-14 07:22N 29°44' W 095°03'0 0.0
2018-Feb-14 06:59N 29°44' W 095°03'0 0.0
2018-Feb-14 06:28N 29°44' W 095°03'0 0.0
2018-Feb-14 06:00N 29°44' W 095°03'0 0.0
2018-Feb-14 05:30N 29°44' W 095°03'0 0.0
2018-Feb-14 04:52N 29°44' W 095°03'0 0.0
2018-Feb-14 04:29N 29°44' W 095°03'0 0.0
2018-Feb-14 03:51N 29°44' W 095°03'0 0.0
2018-Feb-14 03:26N 29°44' W 095°03'0 0.0
2018-Feb-14 02:59N 29°44' W 095°03'0 0.0
2018-Feb-14 02:30N 29°44' W 095°03'0 0.0
2018-Feb-14 01:57N 29°44' W 095°03'0 0.0
2018-Feb-14 01:29N 29°44' W 095°03'0 0.0
2018-Feb-14 01:00N 29°44' W 095°03'0 0.0
2018-Feb-14 00:30N 29°44' W 095°03'0 0.0
2018-Feb-13 23:55N 29°44' W 095°03'0 0.0
2018-Feb-13 23:30N 29°44' W 095°03'0 0.0
2018-Feb-13 22:56N 29°44' W 095°03'0 0.0
2018-Feb-13 22:26N 29°44' W 095°03'0 0.0
2018-Feb-13 22:00N 29°44' W 095°03'0 0.0
2018-Feb-13 21:22N 29°44' W 095°03'0 0.0
2018-Feb-13 21:00N 29°44' W 095°03'0 0.0
2018-Feb-13 20:30N 29°44' W 095°03'0 0.0
2018-Feb-13 20:00N 29°44' W 095°03'0 0.0
2018-Feb-13 19:29N 29°44' W 095°03'0 0.0
2018-Feb-13 19:00N 29°44' W 095°03'0 0.0
2018-Feb-13 18:22N 29°44' W 095°03'1 2.4
2018-Feb-13 18:00N 29°45' W 095°04'2 0.1
2018-Feb-13 01:07N 29°45' W 095°06'1 4.1
2018-Feb-13 00:59N 29°46' W 095°05'5 2.0
2018-Feb-12 22:17N 29°42' W 095°01'2 6.6
2018-Feb-12 22:00N 29°41' W 094°59'1 1.9
2018-Feb-12 21:30N 29°41' W 095°00'0 0.0
2018-Feb-12 21:00N 29°41' W 095°00'0 0.0
2018-Feb-12 20:23N 29°41' W 095°00'0 0.0
2018-Feb-12 20:00N 29°41' W 095°00'0 0.0
2018-Feb-12 19:30N 29°41' W 095°00'0 0.0
2018-Feb-12 19:00N 29°41' W 095°00'0 0.0
2018-Feb-12 18:30N 29°41' W 095°00'0 0.0
2018-Feb-12 18:00N 29°41' W 095°00'0 0.0
2018-Feb-12 17:30N 29°41' W 095°00'0 0.0
2018-Feb-12 17:00N 29°41' W 095°00'0 0.0
2018-Feb-12 16:30N 29°41' W 095°00'0 0.0
2018-Feb-12 16:00N 29°41' W 095°00'0 0.0
2018-Feb-12 15:30N 29°41' W 095°00'0 0.0
2018-Feb-12 15:00N 29°41' W 095°00'0 0.0
2018-Feb-12 14:30N 29°41' W 095°00'0 0.0
2018-Feb-12 14:00N 29°41' W 095°00'0 0.0
2018-Feb-12 13:29N 29°41' W 095°00'0 0.0
2018-Feb-12 13:00N 29°41' W 095°00'0 0.0
2018-Feb-12 12:30N 29°41' W 095°00'0 0.0
2018-Feb-12 12:00N 29°41' W 095°00'0 0.0
2018-Feb-12 11:30N 29°41' W 095°00'0 0.0
2018-Feb-12 11:00N 29°41' W 095°00'0 0.0
2018-Feb-12 10:29N 29°41' W 095°00'0 0.0
2018-Feb-12 10:00N 29°41' W 095°00'0 0.0
2018-Feb-12 09:29N 29°41' W 095°00'0 0.0
2018-Feb-12 08:55N 29°41' W 095°00'0 0.0
2018-Feb-12 08:29N 29°41' W 095°00'0 0.0
2018-Feb-12 07:59N 29°41' W 095°00'0 0.0
2018-Feb-12 07:30N 29°41' W 095°00'0 0.0
2018-Feb-12 07:00N 29°41' W 095°00'0 0.0
2018-Feb-12 06:28N 29°41' W 095°00'0 0.0
2018-Feb-12 06:00N 29°41' W 095°00'0 0.0
2018-Feb-12 05:30N 29°41' W 095°00'1 2.2
2018-Feb-12 05:00N 29°41' W 094°59'4 7.2
2018-Feb-12 04:30N 29°44' W 095°02'4 2.1
2018-Feb-12 02:25N 29°46' W 095°06'0 0.0
2018-Feb-12 01:49N 29°46' W 095°06'0 0.0
2018-Feb-12 01:10N 29°46' W 095°06'0 0.0
2018-Feb-12 01:00N 29°46' W 095°06'0 0.0
2018-Feb-12 00:26N 29°46' W 095°06'  
Track history (hours):
 
Tides and Currents Weather Stations Pressure Air Temp Water Temp Dewpoint Dewpoint Depression Visibility Wind Speed Wind Dir Waves Ship Positions

San Austin

Owner: Buffalo Mariner Service, Inc., Houston, TX. More information available from US FCC via Universal Licensing System and Coast Guard Vessel Documentation Center.

Last reported at 2018-Feb-21 19:00 UTC. Time now 2018-Feb-21 19:21 UTC.
Position N 29°50' W 093°57'.

Length 20 m.

Type: Tug. MMSI: 367361210.

Date/timePositionNaut miles runAvg speedWind from/ knotsBaromVisibWave heightAir tempDewpointWater temp
2018-Feb-21 19:00N 29°50' W 093°57'3 6.8
2018-Feb-21 18:31N 29°53' W 093°55'4 7.7
2018-Feb-21 18:01N 29°56' W 093°52'3 6.6
2018-Feb-21 17:31N 29°59' W 093°50'3 5.3
2018-Feb-21 17:01N 29°59' W 093°47'2 4.5
2018-Feb-21 16:31N 30°01' W 093°45'3 6.5
2018-Feb-21 16:00N 30°03' W 093°43'3 5.4
2018-Feb-21 15:30N 30°04' W 093°39'3 6.9
2018-Feb-21 15:01N 30°04' W 093°36'3 6.7
2018-Feb-21 14:31N 30°04' W 093°32'3 6.7
2018-Feb-21 14:01N 30°04' W 093°28'3 6.5
2018-Feb-21 13:31N 30°04' W 093°24'3 5.7
2018-Feb-21 13:01N 30°04' W 093°21'3 5.1
2018-Feb-21 12:30N 30°06' W 093°20'3 6.1
2018-Feb-21 12:01N 30°09' W 093°20'4 7.3
2018-Feb-21 11:31N 30°12' W 093°17'1 2.9
2018-Feb-21 11:01N 30°13' W 093°15'0 0.0
2018-Feb-21 10:31N 30°13' W 093°15'0 0.0
2018-Feb-21 10:01N 30°13' W 093°15'0 0.0
2018-Feb-21 09:31N 30°13' W 093°15'0 0.0
2018-Feb-21 09:01N 30°13' W 093°15'0 0.0
2018-Feb-21 08:31N 30°13' W 093°15'0 0.0
2018-Feb-21 08:01N 30°13' W 093°15'0 0.0
2018-Feb-21 07:31N 30°13' W 093°15'0 0.0
2018-Feb-21 07:01N 30°13' W 093°15'0 0.0
2018-Feb-21 06:31N 30°13' W 093°15'0 0.0
2018-Feb-21 06:00N 30°13' W 093°15'0 0.0
2018-Feb-21 05:31N 30°13' W 093°15'0 0.0
2018-Feb-21 05:00N 30°13' W 093°15'0 0.0
2018-Feb-21 04:30N 30°13' W 093°15'0 0.0
2018-Feb-21 04:01N 30°13' W 093°15'0 0.0
2018-Feb-21 03:31N 30°13' W 093°15'0 0.0
2018-Feb-21 03:01N 30°13' W 093°15'0 0.0
2018-Feb-21 02:30N 30°13' W 093°15'0 0.0
2018-Feb-21 02:01N 30°13' W 093°15'0 0.0
2018-Feb-21 01:31N 30°13' W 093°15'0 0.0
2018-Feb-21 01:01N 30°13' W 093°15'0 0.0
2018-Feb-21 00:31N 30°13' W 093°15'0 0.0
2018-Feb-21 00:01N 30°13' W 093°15'0 0.0
2018-Feb-20 23:30N 30°13' W 093°15'0 0.0
2018-Feb-20 23:01N 30°13' W 093°15'0 0.0
2018-Feb-20 22:31N 30°13' W 093°15'0 0.0
2018-Feb-20 22:01N 30°13' W 093°15'0 0.0
2018-Feb-20 21:30N 30°13' W 093°15'0 0.0
2018-Feb-20 21:00N 30°13' W 093°15'0 0.0
2018-Feb-20 20:31N 30°13' W 093°15'0 0.0
2018-Feb-20 20:01N 30°13' W 093°15'0 0.0
2018-Feb-20 19:30N 30°13' W 093°15'0 0.0
2018-Feb-20 19:01N 30°13' W 093°15'0 0.0
2018-Feb-20 18:31N 30°13' W 093°15'0 0.0
2018-Feb-20 18:01N 30°13' W 093°15'0 0.0
2018-Feb-20 17:31N 30°13' W 093°15'0 0.0
2018-Feb-20 17:01N 30°13' W 093°15'0 0.0
2018-Feb-20 16:31N 30°13' W 093°15'0 0.0
2018-Feb-20 16:01N 30°13' W 093°15'0 0.0
2018-Feb-20 15:31N 30°13' W 093°15'0 0.0
2018-Feb-20 15:00N 30°13' W 093°15'0 0.0
2018-Feb-20 14:31N 30°13' W 093°15'0 0.0
2018-Feb-20 14:01N 30°13' W 093°15'0 0.0
2018-Feb-20 13:31N 30°13' W 093°15'0 0.0
2018-Feb-20 13:01N 30°13' W 093°15'0 0.0
2018-Feb-20 12:30N 30°13' W 093°15'0 0.0
2018-Feb-20 12:00N 30°13' W 093°15'0 0.6
2018-Feb-20 11:30N 30°13' W 093°15'3 6.2
2018-Feb-20 11:00N 30°11' W 093°19'0 0.3
2018-Feb-20 10:30N 30°11' W 093°19'0 0.0
2018-Feb-20 10:00N 30°11' W 093°19'0 0.0
2018-Feb-20 09:30N 30°11' W 093°19'0 0.0
2018-Feb-20 09:00N 30°11' W 093°19'0 0.0
2018-Feb-20 08:31N 30°11' W 093°19'0 0.0
2018-Feb-20 07:45N 30°11' W 093°19'0 0.0
2018-Feb-20 07:30N 30°11' W 093°19'0 0.0
2018-Feb-20 07:00N 30°11' W 093°19'0 0.0
2018-Feb-20 06:30N 30°11' W 093°19'0 0.0
2018-Feb-20 06:01N 30°11' W 093°19'0 0.0
2018-Feb-20 05:30N 30°11' W 093°19'0 0.0
2018-Feb-20 05:00N 30°11' W 093°19'0 0.0
2018-Feb-20 04:30N 30°11' W 093°19'0 0.0
2018-Feb-20 04:00N 30°11' W 093°19'0 0.0
2018-Feb-20 03:30N 30°11' W 093°19'0 0.0
2018-Feb-20 03:00N 30°11' W 093°19'1 1.3
2018-Feb-20 02:30N 30°10' W 093°19'4 7.2
2018-Feb-20 02:00N 30°07' W 093°20'3 5.9
2018-Feb-20 01:30N 30°04' W 093°21'2 3.5
2018-Feb-20 01:00N 30°04' W 093°23'3 5.5
2018-Feb-20 00:30N 30°04' W 093°26'3 5.3
2018-Feb-20 00:00N 30°04' W 093°29'3 5.7
2018-Feb-19 23:30N 30°04' W 093°32'3 6.1
2018-Feb-19 23:00N 30°04' W 093°36'3 6.4
2018-Feb-19 22:30N 30°04' W 093°39'3 6.5
2018-Feb-19 22:00N 30°03' W 093°43'3 6.6
2018-Feb-19 21:30N 30°01' W 093°46'3 6.4
2018-Feb-19 21:00N 29°59' W 093°49'2 4.9
2018-Feb-19 20:30N 29°58' W 093°51'3 6.3
2018-Feb-19 20:00N 29°55' W 093°53'3 6.4
2018-Feb-19 19:30N 29°53' W 093°55'3 6.1
2018-Feb-19 19:00N 29°50' W 093°57'2 3.4
2018-Feb-19 18:30N 29°49' W 093°59'2 4.1
2018-Feb-19 18:00N 29°48' W 094°01'3 5.2
2018-Feb-19 17:30N 29°46' W 094°03'3 6.4
2018-Feb-19 17:00N 29°44' W 094°06'3 6.1
2018-Feb-19 16:30N 29°42' W 094°08'3 5.7
2018-Feb-19 16:00N 29°41' W 094°11'3 4.9
2018-Feb-19 15:30N 29°40' W 094°14'3 5.6
2018-Feb-19 15:00N 29°39' W 094°17'3 5.6
2018-Feb-19 14:30N 29°37' W 094°20'3 5.6
2018-Feb-19 14:00N 29°36' W 094°23'2 4.6
2018-Feb-19 13:30N 29°35' W 094°25'3 4.3
2018-Feb-19 12:49N 29°33' W 094°28'2 4.9
2018-Feb-19 12:30N 29°32' W 094°29'4 4.4
2018-Feb-19 11:34N 29°30' W 094°33'2 3.5
2018-Feb-19 11:04N 29°29' W 094°35'0 3.1
2018-Feb-19 11:00N 29°29' W 094°35'1 1.1
2018-Feb-19 10:31N 29°29' W 094°36'1 2.4
2018-Feb-19 09:56N 29°29' W 094°37'1 2.9
2018-Feb-19 09:30N 29°28' W 094°38'0 0.2
2018-Feb-19 09:00N 29°28' W 094°38'0 0.0
2018-Feb-19 08:30N 29°28' W 094°38'0 0.0
2018-Feb-19 07:59N 29°28' W 094°38'0 0.0
2018-Feb-19 07:30N 29°28' W 094°38'0 0.0
2018-Feb-19 07:00N 29°28' W 094°38'0 0.0
2018-Feb-19 06:28N 29°28' W 094°38'0 0.0
2018-Feb-19 05:53N 29°28' W 094°38'0 0.0
2018-Feb-19 05:29N 29°28' W 094°38'0 0.0
2018-Feb-19 04:59N 29°28' W 094°38'1 0.1
2018-Feb-18 23:24N 29°28' W 094°39'3 2.8
2018-Feb-18 22:28N 29°27' W 094°42'7 5.0
2018-Feb-18 21:04N 29°21' W 094°47'1 6.9
2018-Feb-18 20:58N 29°21' W 094°47'2 1.9
2018-Feb-18 20:00N 29°19' W 094°47'0 0.2
2018-Feb-18 19:30N 29°19' W 094°47'0 0.1
2018-Feb-18 18:19N 29°19' W 094°47'0 0.0
2018-Feb-18 17:57N 29°19' W 094°47'0 0.0
2018-Feb-18 17:29N 29°19' W 094°47'0 0.0
2018-Feb-18 16:56N 29°19' W 094°47'0 0.0
2018-Feb-17 20:26N 29°19' W 094°47'0 0.0
2018-Feb-17 08:40N 29°19' W 094°47'0 0.0
2018-Feb-17 08:29N 29°19' W 094°47'0 0.0
2018-Feb-17 07:36N 29°19' W 094°47'0 0.0
2018-Feb-17 07:28N 29°19' W 094°47'0 0.0
2018-Feb-17 06:15N 29°19' W 094°47'0 0.0
2018-Feb-17 05:05N 29°19' W 094°47'0 0.0
2018-Feb-17 04:59N 29°19' W 094°47'0 0.0
2018-Feb-17 04:28N 29°19' W 094°47'0 0.0
2018-Feb-17 03:57N 29°19' W 094°47'0 0.0
2018-Feb-17 03:29N 29°19' W 094°47'0 0.0
2018-Feb-17 02:54N 29°19' W 094°47'0 0.0
2018-Feb-17 02:27N 29°19' W 094°47'0 0.0
2018-Feb-17 02:00N 29°19' W 094°47'0 0.1
2018-Feb-17 01:27N 29°19' W 094°47'2 3.9
2018-Feb-17 01:00N 29°21' W 094°47'4 5.6
2018-Feb-17 00:19N 29°24' W 094°49'2 5.6
2018-Feb-17 00:00N 29°26' W 094°50'3 6.5
2018-Feb-16 23:29N 29°29' W 094°52'4 6.9
2018-Feb-16 22:56N 29°32' W 094°54'3 7.2
2018-Feb-16 22:30N 29°35' W 094°56'4 7.0
2018-Feb-16 22:00N 29°38' W 094°58'4 7.7
2018-Feb-16 21:30N 29°41' W 094°59'3 6.4
2018-Feb-16 21:00N 29°44' W 095°02'3 6.3
2018-Feb-16 20:30N 29°46' W 095°05'2 2.5
2018-Feb-16 19:54N 29°47' W 095°06'0 0.1
2018-Feb-16 19:07N 29°46' W 095°06'0 0.0
2018-Feb-16 18:47N 29°47' W 095°06'0 0.0
2018-Feb-16 18:31N 29°47' W 095°06'0 0.0
2018-Feb-16 17:57N 29°47' W 095°06'0 0.0
2018-Feb-16 17:30N 29°47' W 095°06'0 0.1
2018-Feb-16 17:01N 29°47' W 095°06'0 0.1
2018-Feb-16 16:24N 29°46' W 095°06'1 1.6
2018-Feb-16 15:58N 29°46' W 095°06'1 1.5
2018-Feb-16 15:31N 29°45' W 095°06'0 0.1
2018-Feb-16 14:59N 29°45' W 095°06'0 0.0
2018-Feb-16 14:30N 29°45' W 095°06'0 0.0
2018-Feb-16 14:00N 29°45' W 095°06'0 0.0
2018-Feb-16 13:30N 29°45' W 095°06'1 0.5
2018-Feb-16 10:43N 29°46' W 095°06'0 0.0
2018-Feb-16 07:28N 29°46' W 095°06'0 0.0
2018-Feb-16 04:51N 29°46' W 095°06'0 0.0
2018-Feb-16 04:28N 29°46' W 095°06'0 0.0
2018-Feb-16 03:58N 29°46' W 095°06'0 0.0
2018-Feb-16 03:14N 29°46' W 095°06'0 0.0
2018-Feb-16 02:49N 29°46' W 095°06'0 0.0
2018-Feb-16 01:39N 29°46' W 095°06'1 0.2
2018-Feb-15 19:34N 29°46' W 095°05'2 7.2
2018-Feb-15 19:15N 29°44' W 095°03'0 0.0
2018-Feb-15 13:14N 29°44' W 095°03'2 7.5
2018-Feb-15 12:59N 29°45' W 095°04'4 8.6
2018-Feb-15 12:30N 29°44' W 095°09'7 1.7
2018-Feb-15 08:40N 29°43' W 095°16'1 1.5
2018-Feb-15 08:14N 29°44' W 095°17'0 0.0
2018-Feb-15 07:58N 29°44' W 095°17'0 0.0
2018-Feb-15 07:29N 29°44' W 095°17'0 0.0
2018-Feb-15 06:54N 29°44' W 095°17'0 0.0
2018-Feb-15 06:27N 29°44' W 095°17'0 0.0
2018-Feb-15 05:59N 29°44' W 095°17'0 0.0
2018-Feb-15 05:30N 29°44' W 095°17'0 0.0
2018-Feb-15 05:00N 29°44' W 095°17'0 0.0
2018-Feb-15 04:15N 29°44' W 095°17'0 0.0
2018-Feb-15 03:59N 29°44' W 095°17'7 0.9
2018-Feb-14 20:42N 29°44' W 095°09'1 6.1
2018-Feb-14 20:29N 29°44' W 095°07'2 5.0
2018-Feb-14 20:00N 29°46' W 095°06'1 0.6
2018-Feb-14 18:51N 29°46' W 095°06'0 0.1
2018-Feb-14 18:29N 29°46' W 095°06'2 4.1
2018-Feb-14 17:58N 29°45' W 095°04'2 3.4
2018-Feb-14 17:29N 29°44' W 095°03'0 0.0
2018-Feb-14 17:00N 29°44' W 095°03'0 0.0
2018-Feb-14 16:30N 29°44' W 095°03'0 0.0
2018-Feb-14 15:54N 29°44' W 095°03'0 0.0
2018-Feb-14 15:25N 29°44' W 095°03'0 0.0
2018-Feb-14 14:57N 29°44' W 095°03'0 0.0
2018-Feb-14 14:30N 29°44' W 095°03'0 0.0
2018-Feb-14 14:00N 29°44' W 095°03'0 0.0
2018-Feb-14 13:28N 29°44' W 095°03'0 0.0
2018-Feb-14 12:59N 29°44' W 095°03'0 0.0
2018-Feb-14 12:27N 29°44' W 095°03'0 0.0
2018-Feb-14 11:35N 29°44' W 095°03'0 0.0
2018-Feb-14 11:27N 29°44' W 095°03'0 0.0
2018-Feb-14 10:56N 29°44' W 095°03'0 0.0
2018-Feb-14 10:29N 29°44' W 095°03'0 0.0
2018-Feb-14 10:00N 29°44' W 095°03'0 0.0
2018-Feb-14 09:25N 29°44' W 095°03'0 0.0
2018-Feb-14 09:00N 29°44' W 095°03'0 0.0
2018-Feb-14 08:30N 29°44' W 095°03'0 0.0
2018-Feb-14 07:56N 29°44' W 095°03'0 0.0
2018-Feb-14 07:22N 29°44' W 095°03'0 0.0
2018-Feb-14 06:59N 29°44' W 095°03'0 0.0
2018-Feb-14 06:28N 29°44' W 095°03'0 0.0
2018-Feb-14 06:00N 29°44' W 095°03'0 0.0
2018-Feb-14 05:30N 29°44' W 095°03'0 0.0
2018-Feb-14 04:52N 29°44' W 095°03'0 0.0
2018-Feb-14 04:29N 29°44' W 095°03'0 0.0
2018-Feb-14 03:51N 29°44' W 095°03'0 0.0
2018-Feb-14 03:26N 29°44' W 095°03'0 0.0
2018-Feb-14 02:59N 29°44' W 095°03'0 0.0
2018-Feb-14 02:30N 29°44' W 095°03'0 0.0
2018-Feb-14 01:57N 29°44' W 095°03'0 0.0
2018-Feb-14 01:29N 29°44' W 095°03'0 0.0
2018-Feb-14 01:00N 29°44' W 095°03'0 0.0
2018-Feb-14 00:30N 29°44' W 095°03'0 0.0
2018-Feb-13 23:55N 29°44' W 095°03'0 0.0
2018-Feb-13 23:30N 29°44' W 095°03'0 0.0
2018-Feb-13 22:56N 29°44' W 095°03'0 0.0
2018-Feb-13 22:26N 29°44' W 095°03'0 0.0
2018-Feb-13 22:00N 29°44' W 095°03'0 0.0
2018-Feb-13 21:22N 29°44' W 095°03'0 0.0
2018-Feb-13 21:00N 29°44' W 095°03'0 0.0
2018-Feb-13 20:30N 29°44' W 095°03'0 0.0
2018-Feb-13 20:00N 29°44' W 095°03'0 0.0
2018-Feb-13 19:29N 29°44' W 095°03'0 0.0
2018-Feb-13 19:00N 29°44' W 095°03'0 0.0
2018-Feb-13 18:22N 29°44' W 095°03'1 2.4
2018-Feb-13 18:00N 29°45' W 095°04'2 0.1
2018-Feb-13 01:07N 29°45' W 095°06'1 4.1
2018-Feb-13 00:59N 29°46' W 095°05'5 2.0
2018-Feb-12 22:17N 29°42' W 095°01'2 6.6
2018-Feb-12 22:00N 29°41' W 094°59'1 1.9
2018-Feb-12 21:30N 29°41' W 095°00'0 0.0
2018-Feb-12 21:00N 29°41' W 095°00'0 0.0
2018-Feb-12 20:23N 29°41' W 095°00'0 0.0
2018-Feb-12 20:00N 29°41' W 095°00'0 0.0
2018-Feb-12 19:30N 29°41' W 095°00'0 0.0
2018-Feb-12 19:00N 29°41' W 095°00'0 0.0
2018-Feb-12 18:30N 29°41' W 095°00'0 0.0
2018-Feb-12 18:00N 29°41' W 095°00'0 0.0
2018-Feb-12 17:30N 29°41' W 095°00'0 0.0
2018-Feb-12 17:00N 29°41' W 095°00'0 0.0
2018-Feb-12 16:30N 29°41' W 095°00'0 0.0
2018-Feb-12 16:00N 29°41' W 095°00'0 0.0
2018-Feb-12 15:30N 29°41' W 095°00'0 0.0
2018-Feb-12 15:00N 29°41' W 095°00'0 0.0
2018-Feb-12 14:30N 29°41' W 095°00'0 0.0
2018-Feb-12 14:00N 29°41' W 095°00'0 0.0
2018-Feb-12 13:29N 29°41' W 095°00'0 0.0
2018-Feb-12 13:00N 29°41' W 095°00'0 0.0
2018-Feb-12 12:30N 29°41' W 095°00'0 0.0
2018-Feb-12 12:00N 29°41' W 095°00'0 0.0
2018-Feb-12 11:30N 29°41' W 095°00'0 0.0
2018-Feb-12 11:00N 29°41' W 095°00'0 0.0
2018-Feb-12 10:29N 29°41' W 095°00'0 0.0
2018-Feb-12 10:00N 29°41' W 095°00'0 0.0
2018-Feb-12 09:29N 29°41' W 095°00'0 0.0
2018-Feb-12 08:55N 29°41' W 095°00'0 0.0
2018-Feb-12 08:29N 29°41' W 095°00'0 0.0
2018-Feb-12 07:59N 29°41' W 095°00'0 0.0
2018-Feb-12 07:30N 29°41' W 095°00'0 0.0
2018-Feb-12 07:00N 29°41' W 095°00'0 0.0
2018-Feb-12 06:28N 29°41' W 095°00'0 0.0
2018-Feb-12 06:00N 29°41' W 095°00'0 0.0
2018-Feb-12 05:30N 29°41' W 095°00'1 2.2
2018-Feb-12 05:00N 29°41' W 094°59'4 7.2
2018-Feb-12 04:30N 29°44' W 095°02'4 2.1
2018-Feb-12 02:25N 29°46' W 095°06'0 0.0
2018-Feb-12 01:49N 29°46' W 095°06'0 0.0
2018-Feb-12 01:10N 29°46' W 095°06'0 0.0
2018-Feb-12 01:00N 29°46' W 095°06'0 0.0
2018-Feb-12 00:26N 29°46' W 095°06'  

Dump ship's entire track history